createdAt,value
2022-12-05T00:01:38.700Z,101.95
2022-12-05T00:04:08.598Z,106.65
2022-12-05T00:06:36.866Z,97.68
2022-12-05T00:09:05.007Z,89.10
2022-12-05T00:11:35.091Z,93.47
2022-12-05T00:14:04.770Z,93.70
2022-12-05T00:16:33.078Z,92.95
2022-12-05T00:19:01.057Z,82.70
2022-12-05T00:21:30.859Z,91.25
2022-12-05T00:23:58.434Z,91.95
2022-12-05T00:26:25.895Z,98.68
2022-12-05T00:28:53.363Z,91.85
2022-12-05T00:31:22.567Z,87.35
2022-12-05T00:33:49.933Z,83.90
2022-12-05T00:36:20.414Z,86.10
2022-12-05T00:38:47.839Z,88.63
2022-12-05T00:41:18.871Z,88.13
2022-12-05T00:43:46.615Z,83.57
2022-12-05T00:46:21.509Z,86.47
2022-12-05T00:48:48.885Z,85.88
2022-12-05T00:51:29.650Z,85.30
2022-12-05T00:54:01.802Z,83.20
2022-12-05T00:56:29.988Z,92.90
2022-12-05T00:58:57.724Z,81.00
2022-12-05T01:01:34.014Z,88.18
2022-12-05T01:04:04.557Z,91.90
2022-12-05T01:06:31.827Z,85.43
2022-12-05T01:08:59.112Z,90.22
2022-12-05T01:11:26.630Z,94.20
2022-12-05T01:13:53.914Z,87.25
2022-12-05T01:16:30.494Z,91.60
2022-12-05T01:18:58.644Z,93.28
2022-12-05T01:21:25.928Z,92.68
2022-12-05T01:23:53.151Z,94.10
2022-12-05T01:26:21.466Z,90.75
2022-12-05T01:28:48.846Z,89.88
2022-12-05T01:31:24.387Z,88.30
2022-12-05T01:33:55.584Z,90.47
2022-12-05T01:36:23.438Z,90.72
2022-12-05T01:38:52.244Z,86.43
2022-12-05T01:41:25.535Z,85.93
2022-12-05T01:44:02.910Z,76.95
2022-12-05T01:46:32.922Z,82.20
2022-12-05T01:49:24.382Z,79.63
2022-12-05T01:51:58.148Z,72.03
2022-12-05T01:54:25.270Z,77.20
2022-12-05T01:57:00.073Z,86.22
2022-12-05T01:59:30.168Z,81.85
2022-12-05T02:01:57.387Z,79.30
2022-12-05T02:04:24.553Z,78.75
2022-12-05T02:06:51.734Z,79.70
2022-12-05T02:09:18.910Z,77.70
2022-12-05T02:11:52.567Z,76.60
2022-12-05T02:14:22.333Z,82.57
2022-12-05T02:16:54.008Z,73.22
2022-12-05T02:20:10.445Z,71.63
2022-12-05T02:22:46.422Z,81.20
2022-12-05T02:25:35.562Z,84.80
2022-12-05T02:28:26.618Z,81.18
2022-12-05T02:31:35.231Z,76.20
2022-12-05T02:34:18.286Z,79.35
2022-12-05T02:36:51.036Z,81.90
2022-12-05T02:39:44.942Z,86.18
2022-12-05T02:42:52.476Z,75.70
2022-12-05T02:45:19.966Z,86.78
2022-12-05T02:47:51.513Z,78.70
2022-12-05T02:50:23.342Z,83.63
2022-12-05T02:52:51.528Z,90.20
2022-12-05T02:55:18.724Z,73.82
2022-12-05T02:57:49.623Z,81.47
2022-12-05T03:00:17.219Z,80.55
2022-12-05T03:02:44.490Z,83.32
2022-12-05T03:05:18.973Z,73.28
2022-12-05T03:07:47.198Z,78.88
2022-12-05T03:10:14.326Z,75.30
2022-12-05T03:12:47.723Z,75.45
2022-12-05T03:15:22.320Z,70.97
2022-12-05T03:18:06.944Z,75.35
2022-12-05T03:23:13.877Z,74.60
2022-12-05T03:26:12.268Z,83.75
2022-12-05T03:29:14.738Z,75.05
2022-12-05T03:31:54.780Z,76.15
2022-12-05T03:35:15.710Z,84.93
2022-12-05T03:38:03.815Z,78.85
2022-12-05T03:41:07.978Z,80.20
2022-12-05T03:43:50.559Z,78.85
2022-12-05T03:46:27.557Z,74.80
2022-12-05T03:49:08.446Z,69.20
2022-12-05T03:51:39.933Z,78.75
2022-12-05T03:54:18.942Z,78.03
2022-12-05T03:57:08.222Z,75.63
2022-12-05T03:59:38.284Z,76.90
2022-12-05T04:02:11.086Z,73.10
2022-12-05T04:04:44.496Z,71.20
2022-12-05T04:07:11.700Z,77.50
2022-12-05T04:09:53.546Z,65.05
2022-12-05T04:12:28.501Z,74.40
2022-12-05T04:14:59.327Z,70.60
2022-12-05T04:17:51.905Z,69.15
2022-12-05T04:20:50.196Z,68.90
2022-12-05T04:23:17.330Z,66.13
2022-12-05T04:26:12.297Z,66.13
2022-12-05T04:31:31.318Z,71.35
2022-12-05T04:34:02.952Z,67.32
2022-12-05T04:36:40.800Z,73.43
2022-12-05T04:39:37.507Z,76.72
2022-12-05T04:42:12.445Z,75.93
2022-12-05T04:44:50.759Z,74.78
2022-12-05T04:47:19.085Z,70.30
2022-12-05T04:49:50.660Z,81.43
2022-12-05T04:52:20.763Z,68.25
2022-12-05T04:55:17.750Z,76.15
2022-12-05T04:58:06.022Z,72.72
2022-12-05T05:00:35.217Z,75.03
2022-12-05T05:03:30.112Z,78.07
2022-12-05T05:05:57.319Z,74.55
2022-12-05T05:08:28.825Z,73.50
2022-12-05T05:11:10.504Z,71.95
2022-12-05T05:13:37.674Z,70.82
2022-12-05T05:16:05.370Z,70.28
2022-12-05T05:18:32.732Z,72.68
2022-12-05T05:20:59.850Z,76.32
2022-12-05T05:23:26.950Z,71.68
2022-12-05T05:25:55.062Z,66.88
2022-12-05T05:28:22.533Z,66.45
2022-12-05T05:30:49.755Z,71.57
2022-12-05T05:33:16.898Z,73.53
2022-12-05T05:35:44.177Z,74.50
2022-12-05T05:38:11.353Z,69.95
2022-12-05T05:40:38.450Z,79.93
2022-12-05T05:43:05.671Z,71.47
2022-12-05T05:45:32.796Z,74.75
2022-12-05T05:47:59.978Z,75.88
2022-12-05T05:50:27.107Z,75.93
2022-12-05T05:52:54.230Z,76.93
2022-12-05T05:55:21.406Z,77.35
2022-12-05T05:57:48.552Z,84.28
2022-12-05T06:00:16.195Z,86.50
2022-12-05T06:02:43.507Z,92.10
2022-12-05T06:05:10.878Z,83.60
2022-12-05T06:07:38.119Z,96.50
2022-12-05T06:10:06.030Z,95.28
2022-12-05T06:12:34.212Z,91.15
2022-12-05T06:15:01.392Z,115.03
2022-12-05T06:17:28.507Z,116.68
2022-12-05T06:19:56.007Z,110.10
2022-12-05T06:22:23.547Z,100.47
2022-12-05T06:24:50.708Z,87.00
2022-12-05T06:27:17.930Z,90.03
2022-12-05T06:29:45.108Z,90.38
2022-12-05T06:32:12.209Z,93.28
2022-12-05T06:34:54.721Z,85.68
2022-12-05T06:37:23.787Z,80.57
2022-12-05T06:39:52.976Z,75.72
2022-12-05T06:42:24.542Z,94.60
2022-12-05T06:44:52.509Z,94.90
2022-12-05T06:47:19.666Z,87.72
2022-12-05T06:49:46.932Z,85.80
2022-12-05T06:52:14.135Z,92.68
2022-12-05T06:54:41.430Z,80.40
2022-12-05T06:57:09.671Z,75.35
2022-12-05T06:59:36.779Z,84.75
2022-12-05T07:02:07.369Z,83.00
2022-12-05T07:04:34.755Z,78.68
2022-12-05T07:07:02.202Z,83.10
2022-12-05T07:09:48.396Z,72.32
2022-12-05T07:12:17.513Z,75.70
2022-12-05T07:14:47.946Z,79.60
2022-12-05T07:17:15.646Z,78.75
2022-12-05T07:19:42.750Z,84.05
2022-12-05T07:22:15.341Z,84.68
2022-12-05T07:24:43.110Z,85.00
2022-12-05T07:27:10.288Z,83.32
2022-12-05T07:29:37.398Z,81.65
2022-12-05T07:32:04.904Z,83.28
2022-12-05T07:34:32.126Z,82.43
2022-12-05T07:37:00.160Z,92.93
2022-12-05T07:39:27.740Z,99.28
2022-12-05T07:41:54.918Z,85.25
2022-12-05T07:44:22.054Z,96.35
2022-12-05T07:46:49.224Z,93.68
2022-12-05T07:49:20.697Z,85.25
2022-12-05T07:54:18.587Z,90.15
2022-12-05T07:56:47.944Z,85.75
2022-12-05T07:59:15.569Z,90.15
2022-12-05T08:01:42.738Z,75.35
2022-12-05T08:04:15.014Z,91.40
2022-12-05T08:06:42.870Z,89.85
2022-12-05T08:09:09.957Z,83.65
2022-12-05T08:11:37.247Z,97.07
2022-12-05T08:14:05.378Z,93.30
2022-12-05T08:16:41.305Z,91.03
2022-12-05T08:19:10.390Z,101.82
2022-12-05T08:21:37.766Z,91.82
2022-12-05T08:24:06.462Z,90.75
2022-12-05T08:26:34.342Z,86.93
2022-12-05T08:29:07.892Z,90.05
2022-12-05T08:31:39.632Z,92.55
2022-12-05T08:34:06.875Z,101.28
2022-12-05T08:36:34.080Z,93.88
2022-12-05T08:39:04.103Z,87.32
2022-12-05T08:41:31.481Z,82.95
2022-12-05T08:44:03.002Z,81.15
2022-12-05T08:46:31.715Z,100.93
2022-12-05T08:48:58.898Z,101.03
2022-12-05T08:51:26.077Z,103.78
2022-12-05T08:53:56.570Z,101.03
2022-12-05T08:56:27.207Z,101.97
2022-12-05T08:59:01.119Z,93.85
2022-12-05T09:01:32.236Z,85.65
2022-12-05T09:04:05.058Z,100.15
2022-12-05T09:06:32.543Z,97.20
2022-12-05T09:09:01.223Z,100.45
2022-12-05T09:11:31.992Z,88.57
2022-12-05T09:13:59.835Z,92.40
2022-12-05T09:16:38.019Z,93.85
2022-12-05T09:19:15.984Z,91.50
2022-12-05T09:21:43.526Z,98.68
2022-12-05T09:24:12.348Z,95.28
2022-12-05T09:26:40.234Z,93.63
2022-12-05T09:29:10.110Z,87.78
2022-12-05T09:31:43.128Z,87.20
2022-12-05T09:34:10.751Z,92.45
2022-12-05T09:36:55.610Z,89.45
2022-12-05T09:39:25.705Z,88.47
2022-12-05T09:42:04.770Z,79.38
2022-12-05T09:44:59.218Z,86.47
2022-12-05T09:47:42.650Z,78.57
2022-12-05T09:50:23.765Z,75.32
2022-12-05T09:53:25.962Z,39.92
2022-12-05T09:56:06.527Z,48.92
2022-12-05T09:58:38.609Z,44.42
2022-12-05T10:01:38.566Z,39.85
2022-12-05T10:04:30.400Z,45.03
2022-12-05T10:07:24.797Z,51.85
2022-12-05T10:10:20.747Z,78.25
2022-12-05T10:13:06.084Z,85.95
2022-12-05T10:15:57.160Z,88.63
2022-12-05T10:18:55.636Z,95.78
2022-12-05T10:21:41.901Z,102.07
2022-12-05T10:24:46.699Z,94.85
2022-12-05T10:27:40.038Z,90.97
2022-12-05T10:30:24.269Z,90.72
2022-12-05T10:33:13.410Z,91.60
2022-12-05T10:35:41.276Z,88.40
2022-12-05T10:38:17.258Z,88.93
2022-12-05T10:41:10.713Z,94.43
2022-12-05T10:43:40.064Z,91.25
2022-12-05T10:46:09.730Z,89.10
2022-12-05T10:48:41.993Z,85.38
2022-12-05T10:51:22.868Z,91.72
2022-12-05T10:53:51.525Z,87.05
2022-12-05T10:56:46.099Z,88.05
2022-12-05T10:59:18.725Z,79.32
2022-12-05T11:01:51.835Z,81.85
2022-12-05T11:04:28.135Z,84.03
2022-12-05T11:07:03.652Z,78.93
2022-12-05T11:09:35.953Z,82.60
2022-12-05T11:12:22.857Z,80.35
2022-12-05T11:15:01.206Z,84.90
2022-12-05T11:17:37.204Z,79.88
2022-12-05T11:20:16.223Z,75.90
2022-12-05T11:22:48.503Z,78.32
2022-12-05T11:25:33.143Z,75.85
2022-12-05T11:28:17.897Z,78.00
2022-12-05T11:31:24.905Z,81.20
2022-12-05T11:34:20.348Z,78.45
2022-12-05T11:36:53.190Z,74.57
2022-12-05T11:39:20.765Z,78.28
2022-12-05T11:42:26.322Z,69.20
2022-12-05T11:45:15.883Z,74.85
2022-12-05T11:48:07.709Z,80.63
2022-12-05T11:51:00.395Z,77.63
2022-12-05T11:54:11.462Z,82.25
2022-12-05T11:57:20.577Z,85.85
2022-12-05T12:00:30.817Z,83.80
2022-12-05T12:03:29.831Z,79.00
2022-12-05T12:06:49.274Z,75.07
2022-12-05T12:09:32.164Z,81.35
2022-12-05T12:12:53.377Z,87.15
2022-12-05T12:15:31.726Z,79.40
2022-12-05T12:18:16.726Z,86.07
2022-12-05T12:21:20.572Z,75.78
2022-12-05T12:24:38.148Z,77.15
2022-12-05T12:28:01.361Z,70.53
2022-12-05T12:30:55.956Z,73.53
2022-12-05T12:33:49.004Z,76.65
2022-12-05T12:36:42.773Z,92.43
2022-12-05T12:39:29.153Z,88.45
2022-12-05T12:43:02.484Z,96.47
2022-12-05T12:46:22.710Z,87.90
2022-12-05T12:49:22.321Z,97.65
2022-12-05T12:52:16.232Z,88.20
2022-12-05T12:55:15.403Z,84.72
2022-12-05T12:58:18.138Z,89.85
2022-12-05T13:01:22.975Z,88.40
2022-12-05T13:04:43.163Z,84.28
2022-12-05T13:07:29.499Z,82.70
2022-12-05T13:10:14.701Z,86.00
2022-12-05T13:12:43.160Z,92.13
2022-12-05T13:15:47.157Z,89.68
2022-12-05T13:18:25.453Z,98.22
2022-12-05T13:20:58.160Z,97.97
2022-12-05T13:27:05.143Z,92.32
2022-12-05T13:30:19.981Z,97.80
2022-12-05T13:33:26.535Z,86.03
2022-12-05T13:36:45.142Z,92.63
2022-12-05T13:39:41.419Z,80.63
2022-12-05T13:42:30.336Z,83.82
2022-12-05T13:45:43.070Z,83.40
2022-12-05T13:51:20.474Z,85.63
2022-12-05T13:54:00.720Z,79.78
2022-12-05T13:57:02.802Z,86.00
2022-12-05T14:00:27.685Z,79.90
2022-12-05T14:03:04.798Z,84.82
2022-12-05T14:05:50.295Z,81.03
2022-12-05T14:08:35.659Z,81.53
2022-12-05T14:11:10.491Z,85.35
2022-12-05T14:13:45.351Z,86.78
2022-12-05T14:16:30.943Z,87.97
2022-12-05T14:19:11.071Z,86.22
2022-12-05T14:22:59.770Z,88.50
2022-12-05T14:26:01.121Z,87.82
2022-12-05T14:28:52.144Z,79.45
2022-12-05T14:32:25.882Z,94.70
2022-12-05T14:35:44.396Z,98.50
2022-12-05T14:39:29.554Z,91.40
2022-12-05T14:42:03.815Z,102.95
2022-12-05T14:47:05.731Z,118.40
2022-12-05T14:50:20.118Z,90.45
2022-12-05T14:53:30.290Z,108.63
2022-12-05T14:56:18.766Z,102.97
2022-12-05T14:59:01.836Z,193.95
2022-12-05T15:01:40.652Z,167.40
2022-12-05T15:04:51.255Z,105.32
2022-12-05T15:07:21.914Z,106.28
2022-12-05T15:10:02.901Z,100.53
2022-12-05T15:12:51.750Z,103.60
2022-12-05T15:15:42.790Z,99.20
2022-12-05T15:18:40.258Z,97.68
2022-12-05T15:21:37.399Z,105.45
2022-12-05T15:24:10.828Z,98.55
2022-12-05T15:26:54.817Z,104.10
2022-12-05T15:29:25.607Z,105.35
2022-12-05T15:32:06.407Z,109.55
2022-12-05T15:34:38.602Z,104.53
2022-12-05T15:37:09.652Z,105.35
2022-12-05T15:40:33.956Z,111.38
2022-12-05T15:43:01.302Z,118.53
2022-12-05T15:45:34.117Z,110.25
2022-12-05T15:48:22.512Z,115.60
2022-12-05T15:50:54.334Z,106.85
2022-12-05T15:53:58.608Z,106.40
2022-12-05T15:56:43.201Z,105.68
2022-12-05T15:59:26.740Z,109.57
2022-12-05T16:02:03.990Z,111.78
2022-12-05T16:04:54.079Z,112.75
2022-12-05T16:07:22.710Z,111.53
2022-12-05T16:09:51.974Z,115.45
2022-12-05T16:12:39.410Z,101.35
2022-12-05T16:18:33.038Z,111.05
2022-12-05T16:21:03.634Z,121.88
2022-12-05T16:23:34.618Z,122.97
2022-12-05T16:26:23.749Z,116.80
2022-12-05T16:29:05.635Z,125.22
2022-12-05T16:31:43.705Z,116.47
2022-12-05T16:34:19.130Z,114.60
2022-12-05T16:36:50.050Z,121.90
2022-12-05T16:39:22.801Z,121.00
2022-12-05T16:41:50.176Z,122.88
2022-12-05T16:44:49.842Z,125.05
2022-12-05T16:47:29.943Z,128.18
2022-12-05T16:49:57.260Z,126.72
2022-12-05T16:52:30.750Z,134.23
2022-12-05T16:55:24.915Z,121.60
2022-12-05T16:57:57.425Z,140.52
2022-12-05T17:00:28.260Z,138.07
2022-12-05T17:03:32.395Z,137.00
2022-12-05T17:06:00.426Z,118.50
2022-12-05T17:08:27.907Z,122.22
2022-12-05T17:10:58.111Z,115.40
2022-12-05T17:13:27.700Z,117.20
2022-12-05T17:15:56.044Z,116.32
2022-12-05T17:18:29.597Z,116.55
2022-12-05T17:21:01.163Z,116.40
2022-12-05T17:23:28.546Z,112.28
2022-12-05T17:25:57.784Z,121.28
2022-12-05T17:28:25.775Z,110.85
2022-12-05T17:31:00.773Z,112.57
2022-12-05T17:33:28.993Z,116.82
2022-12-05T17:35:56.319Z,112.68
2022-12-05T17:38:23.566Z,129.98
2022-12-05T17:40:50.854Z,127.78
2022-12-05T17:43:24.531Z,231.23
2022-12-05T17:48:19.795Z,132.75
2022-12-05T17:50:49.812Z,123.38
2022-12-05T17:53:25.130Z,125.68
2022-12-05T17:55:54.663Z,132.27
2022-12-05T17:58:21.838Z,125.38
2022-12-05T18:00:54.448Z,120.10
2022-12-05T18:03:21.688Z,123.22
2022-12-05T18:05:49.331Z,112.63
2022-12-05T18:08:22.096Z,117.35
2022-12-05T18:10:51.859Z,129.00
2022-12-05T18:13:21.434Z,139.00
2022-12-05T18:15:53.990Z,142.15
2022-12-05T18:18:21.614Z,134.93
2022-12-05T18:20:49.733Z,145.63
2022-12-05T18:23:19.507Z,152.48
2022-12-05T18:26:01.053Z,147.77
2022-12-05T18:28:33.215Z,150.75
2022-12-05T18:31:19.668Z,154.02
2022-12-05T18:33:48.498Z,149.77
2022-12-05T18:36:21.609Z,145.05
2022-12-05T18:38:58.833Z,142.43
2022-12-05T18:41:33.355Z,141.52
2022-12-05T18:44:05.019Z,141.02
2022-12-05T18:46:42.160Z,143.18
2022-12-05T18:49:13.529Z,146.20
2022-12-05T18:51:46.059Z,147.48
2022-12-05T18:54:18.608Z,141.23
2022-12-05T18:56:50.108Z,146.57
2022-12-05T18:59:25.503Z,137.73
2022-12-05T19:01:57.727Z,142.70
2022-12-05T19:04:29.151Z,140.70
2022-12-05T19:07:01.570Z,139.45
2022-12-05T19:09:30.889Z,131.20
2022-12-05T19:11:59.672Z,127.43
2022-12-05T19:14:33.218Z,136.73
2022-12-05T19:17:15.540Z,134.32
2022-12-05T19:19:42.683Z,127.20
2022-12-05T19:22:09.806Z,138.02
2022-12-05T19:24:37.150Z,129.68
2022-12-05T19:27:04.756Z,139.73
2022-12-05T19:29:31.873Z,136.77
2022-12-05T19:31:59.107Z,138.05
2022-12-05T19:34:26.539Z,144.32
2022-12-05T19:36:53.806Z,119.55
2022-12-05T19:39:23.587Z,148.23
2022-12-05T19:41:51.078Z,143.60
2022-12-05T19:44:18.240Z,145.48
2022-12-05T19:46:45.452Z,134.40
2022-12-05T19:49:35.831Z,116.72
2022-12-05T19:52:02.960Z,136.65
2022-12-05T19:54:30.129Z,130.32
2022-12-05T19:57:00.552Z,131.25
2022-12-05T19:59:27.779Z,132.38
2022-12-05T20:01:55.110Z,132.68
2022-12-05T20:04:22.535Z,116.65
2022-12-05T20:06:50.065Z,132.10
2022-12-05T20:09:21.518Z,135.32
2022-12-05T20:11:55.255Z,153.25
2022-12-05T20:16:58.316Z,144.05
2022-12-05T20:19:27.249Z,143.02
2022-12-05T20:22:39.958Z,133.18
2022-12-05T20:26:37.934Z,120.20
2022-12-05T20:29:29.487Z,132.32
2022-12-05T20:35:37.152Z,142.50
2022-12-05T20:42:30.449Z,146.83
2022-12-05T20:45:23.941Z,140.30
2022-12-05T20:47:51.631Z,148.18
2022-12-05T20:50:25.065Z,148.88
2022-12-05T20:53:46.516Z,170.87
2022-12-05T20:56:31.620Z,159.88
2022-12-05T21:01:54.426Z,165.68
2022-12-05T21:04:27.536Z,152.98
2022-12-05T21:07:03.825Z,153.60
2022-12-05T21:09:59.215Z,156.68
2022-12-05T21:12:28.233Z,158.10
2022-12-05T21:14:59.824Z,151.13
2022-12-05T21:17:27.665Z,148.98
2022-12-05T21:19:54.865Z,154.32
2022-12-05T21:22:22.785Z,120.65
2022-12-05T21:24:51.114Z,146.00
2022-12-05T21:27:18.285Z,148.57
2022-12-05T21:29:45.540Z,147.10
2022-12-05T21:32:12.745Z,142.55
2022-12-05T21:34:40.026Z,156.98
2022-12-05T21:37:07.301Z,160.15
2022-12-05T21:39:34.482Z,143.27
2022-12-05T21:42:01.741Z,149.98
2022-12-05T21:44:28.906Z,169.93
2022-12-05T21:46:56.473Z,154.35
2022-12-05T21:49:23.660Z,164.40
2022-12-05T21:51:50.878Z,158.10
2022-12-05T21:54:18.087Z,166.35
2022-12-05T21:56:45.394Z,163.07
2022-12-05T21:59:12.546Z,153.98
2022-12-05T22:01:39.732Z,143.10
2022-12-05T22:04:08.248Z,158.32
2022-12-05T22:06:35.678Z,166.60
2022-12-05T22:09:02.919Z,160.50
2022-12-05T22:11:30.110Z,156.75
2022-12-05T22:13:57.332Z,160.48
2022-12-05T22:16:30.644Z,163.88
2022-12-05T22:18:59.843Z,155.65
2022-12-05T22:21:26.987Z,161.85
2022-12-05T22:23:54.157Z,147.95
2022-12-05T22:26:24.486Z,150.13
2022-12-05T22:28:56.015Z,162.57
2022-12-05T22:31:23.582Z,162.93
2022-12-05T22:33:50.808Z,128.65
2022-12-05T22:36:18.673Z,165.93
2022-12-05T22:38:47.395Z,171.13
2022-12-05T22:41:20.088Z,162.57
2022-12-05T22:43:48.599Z,158.18
2022-12-05T22:46:18.807Z,150.30
2022-12-05T22:48:46.675Z,149.48
2022-12-05T22:51:14.191Z,148.73
2022-12-05T22:53:41.435Z,158.93
2022-12-05T22:56:18.723Z,156.07
2022-12-05T22:58:46.439Z,147.73
2022-12-05T23:01:25.273Z,140.00
2022-12-05T23:04:00.933Z,130.98
2022-12-05T23:06:28.989Z,91.65
2022-12-05T23:08:56.403Z,106.65
2022-12-05T23:11:24.105Z,98.47
2022-12-05T23:13:51.378Z,92.68
2022-12-05T23:16:22.101Z,97.85
2022-12-05T23:18:50.317Z,84.00
2022-12-05T23:21:32.634Z,79.70
2022-12-05T23:24:01.614Z,95.57
2022-12-05T23:26:41.735Z,103.55
2022-12-05T23:29:12.042Z,101.50
2022-12-05T23:31:41.261Z,106.55
2022-12-05T23:34:08.529Z,104.55
2022-12-05T23:36:36.698Z,113.60
2022-12-05T23:39:05.436Z,81.05
2022-12-05T23:41:32.662Z,94.55
2022-12-05T23:43:59.798Z,86.95
2022-12-05T23:46:27.734Z,86.80
2022-12-05T23:48:55.325Z,80.05
2022-12-05T23:51:27.861Z,112.22
2022-12-05T23:54:00.293Z,101.28
2022-12-05T23:56:30.037Z,102.63
2022-12-05T23:58:59.771Z,124.03
